Time;durP1;ratioP1;P1;durP2;ratioP2;P2;SDS_P1;SDS_P2;PMS_P1;PMS_P2;Temp;Humidity;BMP_temperature;BMP_pressure;BME280_temperature;BME280_humidity;BME280_pressure;Samples;Min_cycle;Max_cycle;Signal;HPM_P1;HPM_P2
2022/09/10 00:01:05;;;;;;;0.47;0.40;;;20.40;99.90;;;;;;5058726;28;20618;-87
2022/09/10 00:03:38;;;;;;;0.65;0.22;;;20.50;99.90;;;;;;5058994;28;20669;-88
2022/09/10 00:06:09;;;;;;;0.98;0.38;;;20.60;99.90;;;;;;5056995;28;20708;-88
2022/09/10 00:08:47;;;;;;;0.38;0.32;;;20.40;99.90;;;;;;5049132;28;20238;-83
2022/09/10 00:11:19;;;;;;;0.40;0.40;;;20.50;99.90;;;;;;5061209;28;20191;-85
2022/09/10 00:13:50;;;;;;;2.15;0.40;;;20.70;99.90;;;;;;5071115;28;20211;-84
2022/09/10 00:16:20;;;;;;;1.10;0.30;;;20.80;99.90;;;;;;5073588;28;20272;-84
2022/09/10 00:18:53;;;;;;;0.47;0.40;;;20.80;99.90;;;;;;5068031;28;20205;-84
2022/09/10 00:21:24;;;;;;;0.65;0.30;;;21.00;99.90;;;;;;5052802;28;20212;-83
2022/09/10 00:23:55;;;;;;;0.80;0.30;;;21.00;99.90;;;;;;5054518;28;20563;-84
2022/09/10 00:26:27;;;;;;;1.65;0.30;;;21.10;99.90;;;;;;5062523;28;20582;-84
2022/09/10 00:29:00;;;;;;;1.80;0.38;;;21.10;99.90;;;;;;5073025;28;20224;-84
2022/09/10 00:31:33;;;;;;;0.60;0.30;;;21.20;99.90;;;;;;5072162;28;20204;-83
2022/09/10 00:34:08;;;;;;;1.17;0.35;;;21.40;99.90;;;;;;5072761;28;20208;-83
2022/09/10 00:36:40;;;;;;;0.43;0.30;;;21.50;99.90;;;;;;5071546;28;20558;-83
2022/09/10 00:39:13;;;;;;;0.75;0.20;;;21.50;99.90;;;;;;5051654;28;20238;-84
2022/09/10 00:41:46;;;;;;;0.20;0.20;;;21.40;99.90;;;;;;5051281;28;21710;-84
2022/09/10 00:44:53;;;;;;;0.38;0.20;;;21.40;99.90;;;;;;5054061;28;20572;-84
2022/09/10 00:47:28;;;;;;;0.45;0.40;;;21.40;99.90;;;;;;5052663;28;20250;-83
2022/09/10 00:50:06;;;;;;;0.45;0.28;;;21.50;99.90;;;;;;5053546;28;20242;-84
2022/09/10 00:52:38;;;;;;;0.30;0.20;;;21.50;99.90;;;;;;5054487;28;20215;-84
2022/09/10 00:55:11;;;;;;;0.52;0.20;;;21.50;99.90;;;;;;5054616;28;20655;-88
2022/09/10 00:57:43;;;;;;;0.20;0.20;;;21.50;99.90;;;;;;5061134;28;20292;-89
2022/09/10 01:00:17;;;;;;;0.43;0.10;;;21.60;99.90;;;;;;5061399;28;20200;-88
2022/09/10 01:02:48;;;;;;;0.90;0.50;;;21.80;99.90;;;;;;5047185;28;20203;-86
2022/09/10 01:05:21;;;;;;;1.00;0.22;;;22.00;99.90;;;;;;5075625;28;20188;-87
2022/09/10 01:07:53;;;;;;;0.32;0.30;;;21.90;99.90;;;;;;5065731;28;20202;-84
2022/09/10 01:10:30;;;;;;;1.40;0.30;;;21.80;99.90;;;;;;5048689;28;20337;-86
2022/09/10 01:13:21;;;;;;;0.30;0.20;;;21.90;99.90;;;;;;5053914;28;20204;-86
2022/09/10 01:15:58;;;;;;;0.25;0.20;;;22.00;99.90;;;;;;5053454;28;20200;-85
2022/09/10 01:18:37;;;;;;;0.82;0.40;;;22.10;99.90;;;;;;5052164;28;20191;-86
2022/09/10 01:21:22;;;;;;;0.80;0.40;;;22.00;99.90;;;;;;5053088;28;21044;-86
2022/09/10 01:24:29;;;;;;;0.28;0.25;;;22.10;99.90;;;;;;5051858;28;20951;-85
2022/09/10 01:27:33;;;;;;;0.28;0.20;;;22.20;99.90;;;;;;5051696;28;20257;-85
2022/09/10 01:30:09;;;;;;;0.20;0.20;;;22.10;99.90;;;;;;5052634;28;20269;-86
2022/09/10 01:32:53;;;;;;;0.30;0.30;;;22.10;99.90;;;;;;5052380;28;20201;-85
2022/09/10 01:35:29;;;;;;;1.08;0.40;;;22.10;99.90;;;;;;5051686;28;20223;-85
2022/09/10 01:38:03;;;;;;;0.98;0.35;;;22.10;99.90;;;;;;5052517;28;20617;-86
2022/09/10 01:40:36;;;;;;;1.27;0.30;;;22.00;99.90;;;;;;5051624;28;20969;-86
2022/09/10 01:43:09;;;;;;;0.55;0.25;;;21.80;99.90;;;;;;5058282;28;20232;-86
2022/09/10 01:45:50;;;;;;;0.20;0.20;;;21.90;99.90;;;;;;5049515;28;20200;-85
2022/09/10 01:48:44;;;;;;;0.40;0.22;;;21.80;99.90;;;;;;5050699;28;20235;-85
2022/09/10 01:51:24;;;;;;;0.85;0.30;;;21.90;99.90;;;;;;5044792;28;20192;-88
2022/09/10 01:54:10;;;;;;;0.65;0.40;;;22.10;99.90;;;;;;5053824;28;20198;-89
2022/09/10 01:56:53;;;;;;;0.30;0.30;;;22.10;99.90;;;;;;5037379;28;20258;-88
2022/09/10 01:59:35;;;;;;;1.05;0.28;;;22.30;99.90;;;;;;5055738;28;20258;-89
2022/09/10 02:02:12;;;;;;;0.65;0.30;;;22.50;99.90;;;;;;5056286;28;20211;-88
2022/09/10 02:04:45;;;;;;;0.63;0.30;;;22.60;99.90;;;;;;5053802;28;20646;-85
2022/09/10 02:07:21;;;;;;;1.45;0.30;;;22.70;99.90;;;;;;5052283;28;20215;-86
2022/09/10 02:09:53;;;;;;;0.20;0.20;;;22.80;99.90;;;;;;5047186;28;20232;-86
2022/09/10 02:12:25;;;;;;;0.85;0.50;;;22.90;99.90;;;;;;5050379;28;20581;-86
2022/09/10 02:14:57;;;;;;;1.75;0.57;;;23.10;99.90;;;;;;5054055;28;20200;-86
2022/09/10 02:17:34;;;;;;;0.30;0.25;;;23.20;99.90;;;;;;5053888;28;20273;-86
2022/09/10 02:20:07;;;;;;;0.73;0.20;;;23.40;99.90;;;;;;5053434;28;20202;-87
2022/09/10 02:22:40;;;;;;;0.60;0.30;;;23.50;99.90;;;;;;5053810;28;20295;-87
2022/09/10 02:25:12;;;;;;;0.82;0.35;;;23.50;99.90;;;;;;5052882;28;20188;-86
2022/09/10 02:27:43;;;;;;;0.40;0.20;;;23.40;99.90;;;;;;5049087;28;20192;-86
2022/09/10 02:30:15;;;;;;;2.10;0.32;;;23.30;99.90;;;;;;5051404;28;20257;-86
2022/09/10 02:32:48;;;;;;;0.52;0.30;;;23.30;99.90;;;;;;5051710;28;20249;-87
2022/09/10 02:35:19;;;;;;;0.20;0.20;;;23.40;99.90;;;;;;5055687;28;20196;-87
2022/09/10 02:37:50;;;;;;;0.25;0.20;;;23.50;99.90;;;;;;5051653;28;20214;-87
2022/09/10 02:40:22;;;;;;;0.30;0.30;;;23.70;99.90;;;;;;5051767;28;20261;-87
2022/09/10 02:42:54;;;;;;;0.63;0.30;;;23.70;99.50;;;;;;5051984;28;20200;-87
2022/09/10 02:45:25;;;;;;;0.60;0.20;;;23.80;99.80;;;;;;5053005;28;20198;-86
2022/09/10 02:47:59;;;;;;;0.20;0.20;;;24.00;99.00;;;;;;5052074;28;20196;-86
2022/09/10 02:50:30;;;;;;;0.50;0.30;;;24.00;99.90;;;;;;5051635;28;20218;-86
2022/09/10 02:53:01;;;;;;;0.40;0.38;;;24.20;98.70;;;;;;5054269;28;20199;-86
2022/09/10 02:55:32;;;;;;;0.88;0.40;;;24.40;98.00;;;;;;5050501;28;20200;-85
2022/09/10 02:58:03;;;;;;;0.57;0.30;;;24.60;97.10;;;;;;5053018;28;20208;-87
2022/09/10 03:00:33;;;;;;;0.82;0.30;;;24.60;96.10;;;;;;5053803;28;20227;-86
2022/09/10 03:03:09;;;;;;;0.32;0.20;;;24.50;93.30;;;;;;5056339;28;20651;-87
2022/09/10 03:05:40;;;;;;;0.90;0.35;;;24.50;93.80;;;;;;5057095;28;20188;-85
2022/09/10 03:08:11;;;;;;;0.30;0.20;;;24.30;91.10;;;;;;5056267;28;20196;-87
2022/09/10 03:10:42;;;;;;;0.20;0.20;;;23.90;90.80;;;;;;5054194;28;20927;-87
2022/09/10 03:13:13;;;;;;;1.15;0.50;;;23.80;91.60;;;;;;5053981;28;20200;-87
2022/09/10 03:15:46;;;;;;;0.73;0.32;;;23.60;92.50;;;;;;5060979;28;20207;-89
2022/09/10 03:18:26;;;;;;;0.40;0.30;;;23.50;92.20;;;;;;5067884;28;20239;-89
2022/09/10 03:21:09;;;;;;;0.22;0.20;;;23.60;93.90;;;;;;5064958;28;20224;-89
2022/09/10 03:23:43;;;;;;;0.50;0.40;;;23.60;92.60;;;;;;5064002;28;20208;-89
2022/09/10 03:26:16;;;;;;;0.38;0.30;;;23.70;93.50;;;;;;5065252;28;20203;-87
2022/09/10 03:28:51;;;;;;;0.30;0.20;;;23.70;92.80;;;;;;5053435;28;20193;-85
2022/09/10 03:31:22;;;;;;;0.50;0.30;;;23.80;92.40;;;;;;5052427;28;20208;-82
2022/09/10 03:33:56;;;;;;;0.35;0.10;;;23.80;92.10;;;;;;5052390;28;20277;-82
2022/09/10 03:36:30;;;;;;;0.98;0.20;;;23.90;92.40;;;;;;5052548;28;20697;-82
2022/09/10 03:39:01;;;;;;;0.20;0.20;;;24.00;91.20;;;;;;5051256;28;21146;-82
2022/09/10 03:41:31;;;;;;;0.40;0.20;;;24.20;92.20;;;;;;5055014;28;20211;-83
2022/09/10 03:44:02;;;;;;;0.63;0.22;;;24.30;91.30;;;;;;5055719;28;20204;-83
2022/09/10 03:46:33;;;;;;;0.52;0.30;;;24.20;90.20;;;;;;5051727;28;20214;-83
2022/09/10 03:49:07;;;;;;;2.05;0.68;;;24.30;90.60;;;;;;5055364;28;20192;-83
2022/09/10 03:51:38;;;;;;;2.13;0.30;;;24.30;90.70;;;;;;5054967;28;20218;-84
2022/09/10 03:54:09;;;;;;;0.40;0.20;;;24.30;89.60;;;;;;5052166;28;20207;-83
2022/09/10 03:56:40;;;;;;;2.45;0.57;;;24.10;85.00;;;;;;5051040;28;20200;-83
2022/09/10 03:59:12;;;;;;;0.20;0.20;;;24.10;85.10;;;;;;5052224;28;20208;-83
2022/09/10 04:01:44;;;;;;;1.90;0.55;;;24.20;87.00;;;;;;5051959;28;20211;-84
2022/09/10 04:04:17;;;;;;;1.98;0.20;;;24.10;86.90;;;;;;5055613;28;20188;-83
2022/09/10 04:06:49;;;;;;;0.55;0.30;;;24.00;86.10;;;;;;5054689;28;20195;-84
2022/09/10 04:09:20;;;;;;;0.22;0.22;;;24.00;87.40;;;;;;5057964;28;20285;-83
2022/09/10 04:11:51;;;;;;;0.30;0.22;;;24.10;88.50;;;;;;5054374;28;20216;-84
2022/09/10 04:14:22;;;;;;;3.72;0.40;;;23.90;85.40;;;;;;5066204;28;20206;-83
2022/09/10 04:16:53;;;;;;;1.38;0.40;;;23.70;86.70;;;;;;5063026;28;20188;-84
2022/09/10 04:19:26;;;;;;;1.08;0.38;;;23.60;90.20;;;;;;5064461;28;20199;-84
2022/09/10 04:21:57;;;;;;;0.40;0.40;;;23.50;90.10;;;;;;5053466;28;20205;-84
2022/09/10 04:24:28;;;;;;;0.50;0.30;;;23.60;91.30;;;;;;5051876;28;20200;-84
2022/09/10 04:26:59;;;;;;;0.40;0.40;;;23.70;91.50;;;;;;5053397;28;20223;-84
2022/09/10 04:29:30;;;;;;;1.48;0.40;;;23.80;90.50;;;;;;5053932;28;20559;-84
2022/09/10 04:32:01;;;;;;;0.82;0.50;;;23.80;89.60;;;;;;5051943;28;20208;-84
2022/09/10 04:34:34;;;;;;;0.47;0.40;;;23.70;90.60;;;;;;5053788;28;20193;-82
2022/09/10 04:37:05;;;;;;;0.38;0.22;;;23.70;91.00;;;;;;5054376;28;20571;-85
2022/09/10 04:39:35;;;;;;;0.17;0.17;;;23.80;91.10;;;;;;5051579;28;20614;-85
2022/09/10 04:42:08;;;;;;;0.32;0.30;;;23.80;90.20;;;;;;5053769;28;20199;-83
2022/09/10 04:44:39;;;;;;;0.22;0.20;;;23.70;90.20;;;;;;5056845;28;20581;-84
2022/09/10 04:47:10;;;;;;;0.45;0.30;;;23.80;91.70;;;;;;5052568;28;20211;-83
2022/09/10 04:49:42;;;;;;;0.70;0.20;;;23.70;90.10;;;;;;5054661;28;20215;-86
2022/09/10 04:52:15;;;;;;;0.35;0.20;;;23.50;90.40;;;;;;5056863;28;20204;-92
2022/09/10 04:54:47;;;;;;;0.25;0.20;;;23.40;90.60;;;;;;5055590;28;20228;-93
2022/09/10 04:57:20;;;;;;;0.50;0.30;;;23.40;90.90;;;;;;5056188;28;20192;-88
2022/09/10 04:59:51;;;;;;;2.55;0.40;;;23.40;91.10;;;;;;5053803;28;20191;-87
2022/09/10 05:02:22;;;;;;;0.28;0.17;;;23.50;91.50;;;;;;5055925;28;20711;-86
2022/09/10 05:04:55;;;;;;;1.55;0.35;;;23.60;85.00;;;;;;5055673;28;20290;-86
2022/09/10 05:07:25;;;;;;;0.40;0.10;;;23.60;85.70;;;;;;5055391;28;20273;-86
2022/09/10 05:09:56;;;;;;;0.68;0.30;;;23.70;82.80;;;;;;5055409;28;20224;-87
2022/09/10 05:12:27;;;;;;;0.20;0.20;;;23.70;83.20;;;;;;5053211;28;20192;-87
2022/09/10 05:14:58;;;;;;;0.75;0.40;;;23.90;84.20;;;;;;5051629;28;20214;-87
2022/09/10 05:17:29;;;;;;;0.65;0.30;;;23.90;84.30;;;;;;5060222;28;20192;-86
2022/09/10 05:20:02;;;;;;;0.30;0.22;;;24.10;84.60;;;;;;5056336;28;20196;-86
2022/09/10 05:22:33;;;;;;;0.68;0.40;;;24.00;84.00;;;;;;5053079;28;20706;-87
2022/09/10 05:25:05;;;;;;;0.60;0.40;;;24.10;85.30;;;;;;5055538;28;20196;-87
2022/09/10 05:27:36;;;;;;;0.20;0.20;;;24.10;82.20;;;;;;5053435;28;20233;-90
2022/09/10 05:30:07;;;;;;;0.52;0.43;;;24.10;82.40;;;;;;5056178;28;20220;-86
2022/09/10 05:32:38;;;;;;;0.80;0.22;;;23.90;82.90;;;;;;5055049;28;20188;-85
2022/09/10 05:35:14;;;;;;;0.20;0.10;;;23.70;83.40;;;;;;5052949;28;20203;-84
2022/09/10 05:37:45;;;;;;;0.17;0.10;;;23.50;84.30;;;;;;5051049;28;20219;-84
2022/09/10 05:40:17;;;;;;;0.20;0.20;;;23.50;84.70;;;;;;5048593;28;20298;-83
2022/09/10 05:42:48;;;;;;;0.38;0.20;;;23.30;87.90;;;;;;5048205;28;20964;-83
2022/09/10 05:45:19;;;;;;;1.20;0.40;;;23.20;92.10;;;;;;5048659;28;20195;-83
2022/09/10 05:47:50;;;;;;;0.30;0.20;;;23.00;96.80;;;;;;5047215;28;20203;-83
2022/09/10 05:50:23;;;;;;;0.52;0.20;;;22.80;99.30;;;;;;5047793;28;20298;-82
2022/09/10 05:52:53;;;;;;;0.63;0.30;;;22.80;99.90;;;;;;5048895;28;20207;-84
2022/09/10 05:55:24;;;;;;;0.30;0.20;;;22.80;99.90;;;;;;5048514;28;20219;-84
2022/09/10 05:57:56;;;;;;;0.63;0.30;;;22.80;97.10;;;;;;5070171;28;20191;-83
2022/09/10 06:00:27;;;;;;;0.10;0.10;;;23.10;95.40;;;;;;5071825;28;20192;-83
2022/09/10 06:02:58;;;;;;;0.30;0.22;;;23.20;92.60;;;;;;5071694;28;20208;-83
2022/09/10 06:05:32;;;;;;;0.20;0.10;;;23.20;92.50;;;;;;5054812;28;20576;-83
2022/09/10 06:08:03;;;;;;;0.20;0.20;;;23.40;91.90;;;;;;5048535;28;20192;-83
2022/09/10 06:10:34;;;;;;;0.20;0.20;;;23.50;91.30;;;;;;5048360;28;20303;-82
2022/09/10 06:13:05;;;;;;;0.30;0.30;;;23.60;91.40;;;;;;5047938;28;20200;-81
2022/09/10 06:15:40;;;;;;;0.20;0.20;;;23.70;90.30;;;;;;5044961;28;20555;-81
2022/09/10 06:18:12;;;;;;;0.43;0.30;;;23.70;88.00;;;;;;5047812;28;20191;-80
2022/09/10 06:20:46;;;;;;;0.45;0.25;;;23.70;88.20;;;;;;5049927;28;23479;-80
2022/09/10 06:23:18;;;;;;;0.20;0.20;;;23.70;87.70;;;;;;5047723;28;20207;-81
2022/09/10 06:25:49;;;;;;;0.10;0.10;;;23.70;84.20;;;;;;5046038;28;20196;-81
2022/09/10 06:28:20;;;;;;;0.40;0.20;;;23.90;83.30;;;;;;5046907;28;20285;-81
2022/09/10 06:30:50;;;;;;;0.55;0.20;;;24.10;83.70;;;;;;5046529;28;20617;-81
2022/09/10 06:33:21;;;;;;;0.20;0.20;;;24.30;83.20;;;;;;5047104;28;20863;-81
2022/09/10 06:35:59;;;;;;;0.40;0.30;;;24.20;82.00;;;;;;5049126;28;20196;-81
2022/09/10 06:38:32;;;;;;;0.38;0.38;;;24.30;82.40;;;;;;5053626;28;20250;-92
2022/09/10 06:41:04;;;;;;;0.32;0.20;;;24.40;82.60;;;;;;5050782;28;20208;-85
2022/09/10 06:43:37;;;;;;;0.30;0.28;;;24.50;83.00;;;;;;5052291;28;20208;-85
2022/09/10 06:46:12;;;;;;;0.30;0.30;;;24.70;80.40;;;;;;5050956;28;20192;-85
2022/09/10 06:48:44;;;;;;;0.40;0.20;;;24.60;80.50;;;;;;5050685;28;20730;-84
2022/09/10 06:51:17;;;;;;;0.10;0.10;;;24.50;81.50;;;;;;5050293;28;20227;-83
2022/09/10 06:53:48;;;;;;;0.82;0.45;;;24.40;82.90;;;;;;5050545;28;20200;-83
2022/09/10 06:56:19;;;;;;;0.30;0.30;;;24.50;82.20;;;;;;5061010;28;20192;-86
2022/09/10 06:58:50;;;;;;;0.30;0.30;;;24.40;81.10;;;;;;5061479;28;20311;-84
2022/09/10 07:01:22;;;;;;;0.30;0.30;;;24.10;83.10;;;;;;5063877;28;20275;-87
2022/09/10 07:03:57;;;;;;;0.32;0.30;;;23.80;84.30;;;;;;5050911;28;20291;-87
2022/09/10 07:06:34;;;;;;;0.28;0.22;;;23.70;84.40;;;;;;5052363;28;20574;-87
2022/09/10 07:09:05;;;;;;;0.30;0.30;;;23.50;86.20;;;;;;5073401;28;20192;-88
2022/09/10 07:11:35;;;;;;;1.27;0.50;;;23.40;89.10;;;;;;5071046;28;20220;-82
2022/09/10 07:14:07;;;;;;;0.40;0.40;;;23.20;90.60;;;;;;5080100;28;20195;-87
2022/09/10 07:16:40;;;;;;;0.52;0.50;;;23.10;91.30;;;;;;5049807;28;20207;-87
2022/09/10 07:19:13;;;;;;;0.30;0.20;;;23.00;92.70;;;;;;5052885;28;20200;-85
2022/09/10 07:21:46;;;;;;;0.25;0.25;;;22.90;92.90;;;;;;5052778;28;20200;-85
2022/09/10 07:24:18;;;;;;;0.85;0.30;;;22.80;93.70;;;;;;5067016;28;20188;-86
2022/09/10 07:26:49;;;;;;;0.50;0.50;;;22.70;94.00;;;;;;5073325;28;20199;-86
2022/09/10 07:29:22;;;;;;;0.57;0.40;;;22.50;95.40;;;;;;5042659;28;20205;-87
2022/09/10 07:31:52;;;;;;;0.68;0.60;;;22.40;96.60;;;;;;5055069;28;20982;-88
2022/09/10 07:34:25;;;;;;;2.40;0.43;;;22.30;97.60;;;;;;5053773;28;20212;-87
2022/09/10 07:37:02;;;;;;;0.40;0.40;;;22.20;97.00;;;;;;5054317;28;20188;-87
2022/09/10 07:39:33;;;;;;;0.50;0.50;;;22.10;97.60;;;;;;5054281;28;20236;-86
2022/09/10 07:42:04;;;;;;;0.63;0.47;;;22.10;98.20;;;;;;5054148;28;20219;-86
2022/09/10 07:44:35;;;;;;;1.02;0.70;;;21.90;98.90;;;;;;5053935;28;20196;-88
2022/09/10 07:47:05;;;;;;;0.47;0.47;;;21.90;99.40;;;;;;5055440;28;20200;-88
2022/09/10 07:49:37;;;;;;;1.13;0.90;;;21.90;99.90;;;;;;5061365;28;20227;-88
2022/09/10 07:52:10;;;;;;;0.98;0.75;;;22.00;99.90;;;;;;5055813;28;20713;-85
2022/09/10 07:54:41;;;;;;;0.90;0.70;;;21.90;99.90;;;;;;5055529;28;20211;-87
2022/09/10 07:57:12;;;;;;;2.95;0.90;;;21.80;99.90;;;;;;5055472;28;20204;-87
2022/09/10 07:59:43;;;;;;;2.35;0.73;;;21.70;99.90;;;;;;5056531;28;20208;-86
2022/09/10 08:02:16;;;;;;;2.85;1.00;;;21.60;99.90;;;;;;5054802;28;20200;-86
2022/09/10 08:04:47;;;;;;;2.47;1.10;;;21.50;99.90;;;;;;5054917;28;20288;-86
2022/09/10 08:07:22;;;;;;;2.78;1.10;;;21.50;99.90;;;;;;5054061;28;20266;-86
2022/09/10 08:09:52;;;;;;;3.08;0.80;;;21.40;99.90;;;;;;5052727;28;20673;-86
2022/09/10 08:12:24;;;;;;;3.08;0.70;;;21.30;99.90;;;;;;5053703;28;20220;-86
2022/09/10 08:14:56;;;;;;;2.97;0.93;;;21.20;99.90;;;;;;5053771;28;20220;-85
2022/09/10 08:17:28;;;;;;;1.77;0.68;;;21.20;99.90;;;;;;5056008;28;21251;-86
2022/09/10 08:20:00;;;;;;;1.92;0.50;;;21.20;99.90;;;;;;5054897;28;20249;-84
2022/09/10 08:22:33;;;;;;;1.33;0.60;;;21.20;99.90;;;;;;5056003;28;21120;-86
2022/09/10 08:25:04;;;;;;;1.85;0.80;;;21.10;99.90;;;;;;5053820;28;20200;-84
2022/09/10 08:27:36;;;;;;;1.70;0.75;;;21.10;99.90;;;;;;5054189;28;20287;-85
2022/09/10 08:30:07;;;;;;;1.60;1.00;;;21.10;99.90;;;;;;5054902;28;20532;-85
2022/09/10 08:32:38;;;;;;;2.58;1.00;;;21.10;99.90;;;;;;5053591;28;20228;-85
2022/09/10 08:35:09;;;;;;;3.67;0.75;;;21.10;99.90;;;;;;5059461;28;20192;-85
2022/09/10 08:37:42;;;;;;;1.17;0.70;;;21.10;99.90;;;;;;5053354;28;20209;-86
2022/09/10 08:40:14;;;;;;;1.25;0.80;;;21.10;99.90;;;;;;5052637;28;20227;-86
2022/09/10 08:42:51;;;;;;;2.15;1.25;;;21.10;99.90;;;;;;5056093;28;20604;-87
2022/09/10 08:45:29;;;;;;;4.10;1.40;;;21.00;99.90;;;;;;5054375;28;20608;-85
2022/09/10 08:48:03;;;;;;;3.35;1.38;;;21.00;99.90;;;;;;5052313;28;20192;-83
2022/09/10 08:50:42;;;;;;;4.57;1.88;;;21.00;99.90;;;;;;5053240;28;20244;-86
2022/09/10 08:53:27;;;;;;;6.43;2.90;;;21.00;99.90;;;;;;5053205;28;20199;-86
2022/09/10 08:56:02;;;;;;;2.78;2.10;;;21.00;99.90;;;;;;5051186;28;20216;-86
2022/09/10 08:58:41;;;;;;;4.25;2.97;;;20.90;99.90;;;;;;5052711;28;20195;-83
2022/09/10 09:01:19;;;;;;;3.45;1.85;;;20.90;99.90;;;;;;5052437;28;20261;-90
2022/09/10 09:03:53;;;;;;;4.43;1.70;;;20.80;99.90;;;;;;5049751;28;20208;-84
2022/09/10 09:06:32;;;;;;;1.42;1.00;;;20.80;99.90;;;;;;5049481;28;20219;-85
2022/09/10 09:09:05;;;;;;;1.52;1.02;;;20.70;99.90;;;;;;5050831;28;20227;-84
2022/09/10 09:11:48;;;;;;;3.20;2.13;;;20.60;99.90;;;;;;5049445;28;20728;-82
2022/09/10 09:14:29;;;;;;;5.18;1.10;;;20.60;99.90;;;;;;5046733;28;20200;-82
2022/09/10 09:17:18;;;;;;;2.63;1.48;;;20.60;99.90;;;;;;5048830;28;20208;-83
2022/09/10 09:20:09;;;;;;;1.83;1.00;;;20.60;99.90;;;;;;5051339;28;20318;-84
2022/09/10 09:22:49;;;;;;;3.38;1.70;;;20.60;99.90;;;;;;5055577;28;20237;-82
2022/09/10 09:25:26;;;;;;;2.20;1.20;;;20.60;99.90;;;;;;5062302;28;20638;-83
2022/09/10 09:27:58;;;;;;;1.38;0.90;;;20.50;99.90;;;;;;5059885;28;20215;-84
2022/09/10 09:30:33;;;;;;;2.38;1.23;;;20.50;99.90;;;;;;5048327;28;20281;-84
2022/09/10 09:33:14;;;;;;;2.28;1.30;;;20.50;99.90;;;;;;5047444;28;20230;-84
2022/09/10 09:35:48;;;;;;;4.20;1.83;;;20.40;99.90;;;;;;5047707;28;20559;-83
2022/09/10 09:38:24;;;;;;;2.88;1.73;;;20.40;99.90;;;;;;5047971;28;20545;-82
2022/09/10 09:41:06;;;;;;;1.80;1.23;;;20.40;99.90;;;;;;5048161;28;22744;-82
2022/09/10 09:43:50;;;;;;;3.20;1.13;;;20.30;99.90;;;;;;5048016;28;20196;-83
2022/09/10 09:46:22;;;;;;;1.73;1.20;;;20.30;99.90;;;;;;5044831;28;20769;-83
2022/09/10 09:48:56;;;;;;;2.15;0.90;;;20.30;99.90;;;;;;5046231;28;20207;-82
2022/09/10 09:51:29;;;;;;;1.27;1.02;;;20.30;99.90;;;;;;5046245;28;20211;-83
2022/09/10 09:54:05;;;;;;;6.55;4.63;;;20.20;99.90;;;;;;5046707;28;20291;-84
2022/09/10 09:56:48;;;;;;;3.42;2.10;;;20.20;99.90;;;;;;5047649;28;20215;-83
2022/09/10 09:59:28;;;;;;;8.27;5.38;;;20.10;99.90;;;;;;5047198;28;20585;-83
2022/09/10 10:02:06;;;;;;;2.17;1.67;;;20.10;99.90;;;;;;5048000;28;20208;-83
2022/09/10 10:04:37;;;;;;;1.60;1.30;;;20.10;99.90;;;;;;5045420;28;20199;-84
2022/09/10 10:07:09;;;;;;;2.08;1.40;;;20.10;99.90;;;;;;5048220;28;20261;-85
2022/09/10 10:09:44;;;;;;;1.30;0.93;;;20.10;99.90;;;;;;5048200;28;21052;-83
2022/09/10 10:12:25;;;;;;;1.00;0.90;;;20.00;99.90;;;;;;5048483;28;20226;-85
2022/09/10 10:14:56;;;;;;;1.02;0.90;;;20.00;99.90;;;;;;5049691;28;20247;-84
2022/09/10 10:17:42;;;;;;;4.30;1.80;;;20.00;99.90;;;;;;5048623;28;20203;-83
2022/09/10 10:20:15;;;;;;;5.40;2.55;;;19.90;99.90;;;;;;5046948;28;20218;-83
2022/09/10 10:22:48;;;;;;;5.55;3.17;;;19.90;99.90;;;;;;5047732;28;20253;-84
2022/09/10 10:25:40;;;;;;;5.22;2.20;;;19.90;99.90;;;;;;5046993;28;20200;-84
2022/09/10 10:28:28;;;;;;;1.38;0.77;;;19.80;99.90;;;;;;5049931;28;20199;-83
2022/09/10 10:31:03;;;;;;;1.00;0.80;;;19.70;99.90;;;;;;5047412;28;20192;-83
2022/09/10 10:33:36;;;;;;;0.50;0.50;;;19.70;99.90;;;;;;5048279;28;20674;-83
2022/09/10 10:36:12;;;;;;;1.05;0.63;;;19.70;99.90;;;;;;5050782;28;20281;-83
2022/09/10 10:38:46;;;;;;;4.90;2.30;;;19.70;99.90;;;;;;5045173;28;20231;-84
2022/09/10 10:41:57;;;;;;;0.68;0.50;;;19.70;99.90;;;;;;5047328;28;20574;-83
2022/09/10 10:44:57;;;;;;;0.57;0.57;;;19.70;99.90;;;;;;5048298;28;20196;-84
2022/09/10 10:47:45;;;;;;;1.90;0.80;;;19.60;99.90;;;;;;5049469;28;20211;-86
2022/09/10 10:50:27;;;;;;;1.13;1.00;;;19.60;99.90;;;;;;5047977;28;20204;-82
2022/09/10 10:53:21;;;;;;;1.75;1.40;;;19.60;99.90;;;;;;5046885;28;20231;-83
2022/09/10 10:56:00;;;;;;;8.45;7.10;;;19.50;99.90;;;;;;5040854;28;20199;-82
2022/09/10 10:58:54;;;;;;;7.70;4.60;;;19.50;99.90;;;;;;5046522;28;20588;-83
2022/09/10 11:01:31;;;;;;;11.90;9.15;;;19.40;99.90;;;;;;5047507;28;20568;-80
2022/09/10 11:04:15;;;;;;;6.90;4.75;;;19.30;99.90;;;;;;5046886;28;21135;-81
2022/09/10 11:06:49;;;;;;;0.70;0.70;;;19.30;99.90;;;;;;5046719;28;20200;-80
2022/09/10 11:09:30;;;;;;;0.77;0.70;;;19.30;99.90;;;;;;5047318;28;20196;-79
2022/09/10 11:12:04;;;;;;;0.57;0.40;;;19.30;99.90;;;;;;5050741;28;20227;-80
2022/09/10 11:14:42;;;;;;;0.68;0.50;;;19.30;99.90;;;;;;5049243;28;20670;-78
2022/09/10 11:17:19;;;;;;;1.20;0.80;;;19.30;99.90;;;;;;5046161;28;20211;-81
2022/09/10 11:20:00;;;;;;;0.85;0.65;;;19.30;99.90;;;;;;5047265;28;20249;-79
2022/09/10 11:22:35;;;;;;;0.70;0.50;;;19.30;99.90;;;;;;5047909;28;20194;-79
2022/09/10 11:25:17;;;;;;;0.60;0.60;;;19.30;99.90;;;;;;5050896;28;20291;-79
2022/09/10 11:27:53;;;;;;;0.63;0.60;;;19.20;99.90;;;;;;5050663;28;20200;-80
2022/09/10 11:30:26;;;;;;;1.13;1.02;;;19.20;99.90;;;;;;5051336;28;20910;-80
2022/09/10 11:33:05;;;;;;;0.70;0.70;;;19.20;99.90;;;;;;5050820;28;20220;-80
2022/09/10 11:35:40;;;;;;;1.27;1.00;;;19.10;99.90;;;;;;5051298;28;20215;-80
2022/09/10 11:38:21;;;;;;;1.10;1.00;;;19.10;99.90;;;;;;5055715;28;20591;-80
2022/09/10 11:40:57;;;;;;;2.33;0.90;;;19.10;99.90;;;;;;5055735;28;20222;-80
2022/09/10 11:43:34;;;;;;;3.15;1.20;;;19.10;99.90;;;;;;5051999;28;20214;-80
2022/09/10 11:46:08;;;;;;;1.23;0.80;;;19.00;99.90;;;;;;5047789;28;20196;-80
2022/09/10 11:48:44;;;;;;;1.50;1.00;;;19.00;99.90;;;;;;5046251;28;20195;-81
2022/09/10 11:51:21;;;;;;;1.15;1.00;;;19.00;99.90;;;;;;5047990;28;20211;-81
2022/09/10 11:53:52;;;;;;;1.63;0.90;;;19.00;99.90;;;;;;5049878;28;20204;-83
2022/09/10 11:56:40;;;;;;;2.35;0.85;;;18.90;99.90;;;;;;5048802;28;20229;-82
2022/09/10 11:59:41;;;;;;;0.60;0.60;;;19.00;99.90;;;;;;5048624;28;20192;-82
2022/09/10 12:02:34;;;;;;;1.50;0.60;;;18.90;99.90;;;;;;5047436;28;20200;-83
2022/09/10 12:05:19;;;;;;;0.60;0.60;;;18.90;99.90;;;;;;5048643;28;20196;-82
2022/09/10 12:08:01;;;;;;;0.98;0.88;;;18.90;99.90;;;;;;5051847;28;20207;-83
2022/09/10 12:10:38;;;;;;;1.08;0.90;;;18.90;99.90;;;;;;5049749;28;20310;-83
2022/09/10 12:13:14;;;;;;;1.17;1.08;;;18.90;99.90;;;;;;5050208;28;20223;-83
2022/09/10 12:15:54;;;;;;;1.20;1.05;;;18.90;99.90;;;;;;5052943;28;20206;-82
2022/09/10 12:18:29;;;;;;;0.90;0.65;;;18.90;99.90;;;;;;5050261;28;20199;-83
2022/09/10 12:21:05;;;;;;;0.70;0.60;;;18.90;99.90;;;;;;5048749;28;20218;-82
2022/09/10 12:23:38;;;;;;;1.90;0.63;;;18.90;99.90;;;;;;5049186;28;20202;-83
2022/09/10 12:26:14;;;;;;;0.60;0.55;;;18.90;99.90;;;;;;5050561;28;20903;-84
2022/09/10 12:29:07;;;;;;;0.50;0.50;;;18.80;99.90;;;;;;5048852;28;20199;-84
2022/09/10 12:32:30;;;;;;;0.85;0.60;;;18.80;99.90;;;;;;5050432;28;20289;-83
2022/09/10 12:35:38;;;;;;;0.60;0.52;;;18.80;99.90;;;;;;5029899;28;20188;-84
2022/09/10 12:38:51;;;;;;;0.75;0.63;;;18.70;99.90;;;;;;5042204;28;20220;-83
2022/09/10 12:41:59;;;;;;;3.75;0.80;;;18.70;99.90;;;;;;5047310;28;20734;-82
2022/09/10 12:44:45;;;;;;;0.60;0.60;;;18.70;99.90;;;;;;5049948;28;20582;-84
2022/09/10 12:47:49;;;;;;;0.60;0.60;;;18.70;99.90;;;;;;5048567;28;20301;-82
2022/09/10 12:50:35;;;;;;;0.50;0.50;;;18.70;99.90;;;;;;5046397;28;20249;-81
2022/09/10 12:53:46;;;;;;;0.93;0.63;;;18.70;99.90;;;;;;5047101;28;20232;-82
2022/09/10 12:56:52;;;;;;;0.75;0.57;;;18.70;99.90;;;;;;5047849;28;20422;-81
2022/09/10 13:00:04;;;;;;;0.63;0.60;;;18.70;99.90;;;;;;5047565;28;20204;-81
2022/09/10 13:02:39;;;;;;;1.08;0.63;;;18.60;99.90;;;;;;5031212;28;20269;-80
2022/09/10 13:05:24;;;;;;;0.90;0.60;;;18.60;99.90;;;;;;5046359;28;20215;-81
2022/09/10 13:08:15;;;;;;;0.98;0.68;;;18.60;99.90;;;;;;5046964;28;20222;-81
2022/09/10 13:10:48;;;;;;;1.20;0.60;;;18.50;99.90;;;;;;5044669;28;20200;-81
2022/09/10 13:13:40;;;;;;;1.38;0.60;;;18.50;99.90;;;;;;5050554;28;20282;-81
2022/09/10 13:16:16;;;;;;;2.47;0.70;;;18.50;99.90;;;;;;5048591;28;20211;-81
2022/09/10 13:18:47;;;;;;;1.35;0.60;;;18.40;99.90;;;;;;5047814;28;20204;-82
2022/09/10 13:21:55;;;;;;;0.73;0.60;;;18.40;99.90;;;;;;5048122;28;20203;-82
2022/09/10 13:25:03;;;;;;;3.45;0.60;;;18.40;99.90;;;;;;4985011;28;20229;-81
2022/09/10 13:27:42;;;;;;;1.58;0.70;;;18.40;99.90;;;;;;5046206;28;20298;-79
2022/09/10 13:30:24;;;;;;;0.30;0.30;;;18.40;99.90;;;;;;5046707;28;20230;-80
2022/09/10 13:32:58;;;;;;;0.40;0.40;;;18.30;99.90;;;;;;5048866;28;20216;-80
2022/09/10 13:36:06;;;;;;;0.60;0.40;;;18.30;99.90;;;;;;5048802;28;20199;-80